createdAt,value
2023-03-21T00:00:45.126Z,14.10
2023-03-21T00:03:11.999Z,14.10
2023-03-21T00:05:43.113Z,14.20
2023-03-21T00:08:09.974Z,14.10
2023-03-21T00:10:41.691Z,14.10
2023-03-21T00:13:15.429Z,14.10
2023-03-21T00:18:52.280Z,14.00
2023-03-21T00:21:46.504Z,14.00
2023-03-21T00:24:08.032Z,14.00
2023-03-21T00:26:34.993Z,14.00
2023-03-21T00:29:01.829Z,13.90
2023-03-21T00:31:28.811Z,13.90
2023-03-21T00:33:55.865Z,13.80
2023-03-21T00:36:26.060Z,13.80
2023-03-21T00:38:53.198Z,13.90
2023-03-21T00:41:35.018Z,13.80
2023-03-21T00:44:06.915Z,13.80
2023-03-21T00:46:43.961Z,13.90
2023-03-21T00:49:12.180Z,13.90
2023-03-21T00:51:43.631Z,13.90
2023-03-21T00:54:12.759Z,13.90
2023-03-21T00:56:41.028Z,13.90
2023-03-21T00:59:08.336Z,14.00
2023-03-21T01:01:36.494Z,14.00
2023-03-21T01:04:13.161Z,14.00
2023-03-21T01:06:41.848Z,14.00
2023-03-21T01:09:18.362Z,14.00
2023-03-21T01:11:45.586Z,14.00
2023-03-21T01:14:22.563Z,14.10
2023-03-21T01:16:52.049Z,14.10
2023-03-21T01:19:50.291Z,14.10
2023-03-21T01:22:06.906Z,14.10
2023-03-21T01:24:35.561Z,14.10
2023-03-21T01:27:04.573Z,14.10
2023-03-21T01:29:31.514Z,14.10
2023-03-21T01:31:58.246Z,14.10
2023-03-21T01:34:25.068Z,14.10
2023-03-21T01:36:52.347Z,14.00
2023-03-21T01:39:21.665Z,14.00
2023-03-21T01:41:49.774Z,14.00
2023-03-21T01:44:25.648Z,14.00
2023-03-21T01:47:09.301Z,14.00
2023-03-21T01:49:49.739Z,14.00
2023-03-21T01:52:37.604Z,14.10
2023-03-21T01:55:18.919Z,14.00
2023-03-21T01:58:06.016Z,14.00
2023-03-21T02:00:50.903Z,14.00
2023-03-21T02:03:38.034Z,14.00
2023-03-21T02:06:31.611Z,14.00
2023-03-21T02:09:09.264Z,14.00
2023-03-21T02:11:37.997Z,13.90
2023-03-21T02:14:07.093Z,13.90
2023-03-21T02:17:16.454Z,13.90
2023-03-21T02:20:00.763Z,13.90
2023-03-21T02:22:45.865Z,13.90
2023-03-21T02:25:36.553Z,13.90
2023-03-21T02:28:14.607Z,13.90
2023-03-21T02:31:19.618Z,13.90
2023-03-21T02:34:16.844Z,13.90
2023-03-21T02:36:58.438Z,13.90
2023-03-21T02:39:34.602Z,13.90
2023-03-21T02:42:28.875Z,13.90
2023-03-21T02:45:20.412Z,14.00
2023-03-21T02:48:06.863Z,14.00
2023-03-21T02:50:43.546Z,14.00
2023-03-21T02:53:13.737Z,14.00
2023-03-21T02:55:43.040Z,14.00
2023-03-21T02:58:16.611Z,14.00
2023-03-21T03:00:55.342Z,14.10
2023-03-21T03:03:39.443Z,14.10
2023-03-21T03:06:20.669Z,14.10
2023-03-21T03:08:59.702Z,14.10
2023-03-21T03:11:30.065Z,14.20
2023-03-21T03:14:42.080Z,14.20
2023-03-21T03:17:17.179Z,14.10
2023-03-21T03:20:17.272Z,14.10
2023-03-21T03:23:03.532Z,14.10
2023-03-21T03:25:43.655Z,14.10
2023-03-21T03:28:17.639Z,14.10
2023-03-21T03:31:01.156Z,14.00
2023-03-21T03:33:40.307Z,14.10
2023-03-21T03:36:14.833Z,14.10
2023-03-21T03:38:48.669Z,14.10
2023-03-21T03:41:25.580Z,14.10
2023-03-21T03:44:00.099Z,14.10
2023-03-21T03:46:35.981Z,14.10
2023-03-21T03:49:24.586Z,14.00
2023-03-21T03:52:17.399Z,14.00
2023-03-21T03:54:51.094Z,14.00
2023-03-21T03:57:20.111Z,14.00
2023-03-21T03:59:47.637Z,13.90
2023-03-21T04:02:24.720Z,13.90
2023-03-21T04:04:53.731Z,14.00
2023-03-21T04:07:22.286Z,14.00
2023-03-21T04:09:51.898Z,13.90
2023-03-21T04:12:20.738Z,13.90
2023-03-21T04:15:16.621Z,14.00
2023-03-21T04:17:48.665Z,14.00
2023-03-21T04:20:23.869Z,14.00
2023-03-21T04:23:01.085Z,14.00
2023-03-21T04:25:33.737Z,14.00
2023-03-21T04:28:02.478Z,13.90
2023-03-21T04:30:38.144Z,13.90
2023-03-21T04:33:17.160Z,13.90
2023-03-21T04:35:56.196Z,13.90
2023-03-21T04:38:30.617Z,13.90
2023-03-21T04:41:01.161Z,13.90
2023-03-21T04:43:30.875Z,13.90
2023-03-21T04:45:57.915Z,13.90
2023-03-21T04:48:24.815Z,13.90
2023-03-21T04:50:52.526Z,14.00
2023-03-21T04:53:19.333Z,13.90
2023-03-21T04:55:46.494Z,14.00
2023-03-21T04:58:13.322Z,13.90
2023-03-21T05:00:40.127Z,13.90
2023-03-21T05:03:10.682Z,13.90
2023-03-21T05:05:38.436Z,13.90
2023-03-21T05:08:06.374Z,13.90
2023-03-21T05:10:33.682Z,13.90
2023-03-21T05:13:01.000Z,13.90
2023-03-21T05:15:28.178Z,13.90
2023-03-21T05:17:55.054Z,14.00
2023-03-21T05:20:21.890Z,14.00
2023-03-21T05:22:51.433Z,14.00
2023-03-21T05:25:21.238Z,14.10
2023-03-21T05:28:23.456Z,14.00
2023-03-21T05:30:50.353Z,14.00
2023-03-21T05:33:17.141Z,14.00
2023-03-21T05:35:44.135Z,14.00
2023-03-21T05:38:12.802Z,13.90
2023-03-21T05:40:50.512Z,13.90
2023-03-21T05:43:18.364Z,13.80
2023-03-21T05:45:48.193Z,13.80
2023-03-21T05:48:16.495Z,13.80
2023-03-21T05:51:12.846Z,13.70
2023-03-21T05:53:40.671Z,13.70
2023-03-21T05:56:08.596Z,13.70
2023-03-21T05:58:47.742Z,13.70
2023-03-21T06:01:15.259Z,13.70
2023-03-21T06:03:48.104Z,13.60
2023-03-21T06:06:22.118Z,13.70
2023-03-21T06:08:54.582Z,13.70
2023-03-21T06:11:37.557Z,13.70
2023-03-21T06:14:13.111Z,13.70
2023-03-21T06:16:41.350Z,13.70
2023-03-21T06:19:08.576Z,13.70
2023-03-21T06:21:47.153Z,13.80
2023-03-21T06:24:14.325Z,13.80
2023-03-21T06:26:42.853Z,13.80
2023-03-21T06:29:10.184Z,13.80
2023-03-21T06:31:37.182Z,13.80
2023-03-21T06:34:05.576Z,13.80
2023-03-21T06:36:32.643Z,13.80
2023-03-21T06:39:00.683Z,13.80
2023-03-21T06:41:27.831Z,13.90
2023-03-21T06:44:00.406Z,13.90
2023-03-21T06:46:28.979Z,13.90
2023-03-21T06:48:56.295Z,13.90
2023-03-21T06:51:23.245Z,14.00
2023-03-21T06:54:01.166Z,14.00
2023-03-21T06:56:38.927Z,14.00
2023-03-21T06:59:08.814Z,14.10
2023-03-21T07:01:54.604Z,14.10
2023-03-21T07:04:21.420Z,14.10
2023-03-21T07:06:49.675Z,14.10
2023-03-21T07:09:18.554Z,14.20
2023-03-21T07:11:45.856Z,14.30
2023-03-21T07:14:12.606Z,14.30
2023-03-21T07:16:39.519Z,14.30
2023-03-21T07:19:07.145Z,14.30
2023-03-21T07:21:34.083Z,14.40
2023-03-21T07:24:01.132Z,14.40
2023-03-21T07:26:27.893Z,14.50
2023-03-21T07:28:54.902Z,14.50
2023-03-21T07:31:21.709Z,14.50
2023-03-21T07:33:48.504Z,14.60
2023-03-21T07:36:16.230Z,14.60
2023-03-21T07:38:43.944Z,14.50
2023-03-21T07:41:10.963Z,14.60
2023-03-21T07:43:39.303Z,14.60
2023-03-21T07:46:09.687Z,14.70
2023-03-21T07:48:37.229Z,14.70
2023-03-21T07:51:06.378Z,14.70
2023-03-21T07:53:35.264Z,14.80
2023-03-21T07:56:02.146Z,14.80
2023-03-21T07:58:28.917Z,14.80
2023-03-21T08:00:56.671Z,14.80
2023-03-21T08:03:24.101Z,14.80
2023-03-21T08:05:51.102Z,14.80
2023-03-21T08:08:18.055Z,14.80
2023-03-21T08:10:45.030Z,14.80
2023-03-21T08:13:12.255Z,14.80
2023-03-21T08:15:41.940Z,14.80
2023-03-21T08:18:09.783Z,14.90
2023-03-21T08:20:36.709Z,14.80
2023-03-21T08:23:03.837Z,14.80
2023-03-21T08:25:31.443Z,14.90
2023-03-21T08:27:58.299Z,14.90
2023-03-21T08:30:27.081Z,14.90
2023-03-21T08:33:00.644Z,14.80
2023-03-21T08:35:28.802Z,14.90
2023-03-21T08:37:55.589Z,15.00
2023-03-21T08:40:22.394Z,15.00
2023-03-21T08:42:49.159Z,15.00
2023-03-21T08:45:17.398Z,15.00
2023-03-21T08:47:44.839Z,15.10
2023-03-21T08:50:15.550Z,15.20
2023-03-21T08:52:42.363Z,15.20
2023-03-21T08:55:10.500Z,15.40
2023-03-21T08:57:37.494Z,15.50
2023-03-21T09:00:13.014Z,15.60
2023-03-21T09:02:40.977Z,15.60
2023-03-21T09:05:08.674Z,15.70
2023-03-21T09:07:36.358Z,15.70
2023-03-21T09:10:21.887Z,15.60
2023-03-21T09:12:51.136Z,15.50
2023-03-21T09:15:20.114Z,15.50
2023-03-21T09:17:50.269Z,15.50
2023-03-21T09:20:31.040Z,15.50
2023-03-21T09:22:59.673Z,15.50
2023-03-21T09:25:31.271Z,15.50
2023-03-21T09:28:00.210Z,15.60
2023-03-21T09:30:27.192Z,15.60
2023-03-21T09:32:55.596Z,15.60
2023-03-21T09:35:24.278Z,15.60
2023-03-21T09:37:51.509Z,15.50
2023-03-21T09:40:35.345Z,15.40
2023-03-21T09:43:17.052Z,15.40
2023-03-21T09:45:54.901Z,15.40
2023-03-21T09:48:33.542Z,15.50
2023-03-21T09:51:02.684Z,15.50
2023-03-21T09:53:41.378Z,15.40
2023-03-21T09:56:12.469Z,15.50
2023-03-21T09:58:50.709Z,15.60
2023-03-21T10:01:34.278Z,15.50
2023-03-21T10:04:17.131Z,15.60
2023-03-21T10:06:45.751Z,15.50
2023-03-21T10:09:23.443Z,15.60
2023-03-21T10:11:56.523Z,15.60
2023-03-21T10:14:26.332Z,15.70
2023-03-21T10:16:58.568Z,16.00
2023-03-21T10:19:27.900Z,16.30
2023-03-21T10:22:03.694Z,16.50
2023-03-21T10:24:33.830Z,16.60
2023-03-21T10:27:02.333Z,16.70
2023-03-21T10:29:36.926Z,16.80
2023-03-21T10:32:03.947Z,16.80
2023-03-21T10:34:32.848Z,17.00
2023-03-21T10:37:01.753Z,17.10
2023-03-21T10:39:40.870Z,17.00
2023-03-21T10:42:23.761Z,17.00
2023-03-21T10:44:57.377Z,17.00
2023-03-21T10:47:32.428Z,17.10
2023-03-21T10:50:29.751Z,17.30
2023-03-21T10:53:00.708Z,17.60
2023-03-21T10:55:33.601Z,18.00
2023-03-21T10:58:08.432Z,18.30
2023-03-21T11:00:39.447Z,18.40
2023-03-21T11:03:07.047Z,18.50
2023-03-21T11:05:37.812Z,18.50
2023-03-21T11:08:14.739Z,18.40
2023-03-21T11:11:12.499Z,18.40
2023-03-21T11:13:44.838Z,18.60
2023-03-21T11:16:22.582Z,18.90
2023-03-21T11:18:52.253Z,19.00
2023-03-21T11:21:20.059Z,19.20
2023-03-21T11:23:49.869Z,19.10
2023-03-21T11:26:32.916Z,19.30
2023-03-21T11:29:00.711Z,19.60
2023-03-21T11:31:40.997Z,20.10
2023-03-21T11:34:09.626Z,20.80
2023-03-21T11:36:39.143Z,21.30
2023-03-21T11:39:30.082Z,21.80
2023-03-21T11:41:56.877Z,21.80
2023-03-21T11:44:30.794Z,21.50
2023-03-21T11:46:58.172Z,21.20
2023-03-21T11:49:26.140Z,21.00
2023-03-21T11:52:17.969Z,20.70
2023-03-21T11:55:14.946Z,20.60
2023-03-21T11:58:13.546Z,20.70
2023-03-21T12:01:10.163Z,21.00
2023-03-21T12:03:58.298Z,20.60
2023-03-21T12:07:11.997Z,20.10
2023-03-21T12:09:50.421Z,19.60
2023-03-21T12:12:42.460Z,19.30
2023-03-21T12:15:21.634Z,19.10
2023-03-21T12:18:13.188Z,18.80
2023-03-21T12:20:48.818Z,18.50
2023-03-21T12:23:56.397Z,18.30
2023-03-21T12:26:27.864Z,18.30
2023-03-21T12:29:14.728Z,18.30
2023-03-21T12:31:52.798Z,18.30
2023-03-21T12:34:44.323Z,18.70
2023-03-21T12:37:23.000Z,19.10
2023-03-21T12:39:51.550Z,19.50
2023-03-21T12:42:39.781Z,19.50
2023-03-21T12:45:26.065Z,19.00
2023-03-21T12:48:13.316Z,19.10
2023-03-21T12:50:40.815Z,20.60
2023-03-21T12:53:30.268Z,21.80
2023-03-21T12:56:01.667Z,25.10
2023-03-21T12:58:31.108Z,27.40
2023-03-21T13:01:01.643Z,27.80
2023-03-21T13:03:40.483Z,28.00
2023-03-21T13:06:10.862Z,29.00
2023-03-21T13:08:43.635Z,28.40
2023-03-21T13:11:17.991Z,26.80
2023-03-21T13:14:07.868Z,26.20
2023-03-21T13:16:46.331Z,25.80
2023-03-21T13:19:26.995Z,24.70
2023-03-21T13:22:12.585Z,24.00
2023-03-21T13:24:47.297Z,23.10
2023-03-21T13:27:37.447Z,23.20
2023-03-21T13:30:14.101Z,25.90
2023-03-21T13:32:46.196Z,27.20
2023-03-21T13:35:27.416Z,26.60
2023-03-21T13:38:03.663Z,25.30
2023-03-21T13:40:48.485Z,24.10
2023-03-21T13:44:03.641Z,23.40
2023-03-21T13:46:34.141Z,23.50
2023-03-21T13:49:10.032Z,25.10
2023-03-21T13:51:36.807Z,25.30
2023-03-21T13:54:15.576Z,25.30
2023-03-21T13:56:45.886Z,24.70
2023-03-21T13:59:43.368Z,23.70
2023-03-21T14:02:30.639Z,22.80
2023-03-21T14:05:06.419Z,22.00
2023-03-21T14:07:37.018Z,21.30
2023-03-21T14:10:18.730Z,21.00
2023-03-21T14:12:47.375Z,20.60
2023-03-21T14:15:23.124Z,20.30
2023-03-21T14:18:10.970Z,20.10
2023-03-21T14:20:56.614Z,19.80
2023-03-21T14:23:24.239Z,19.60
2023-03-21T14:25:51.941Z,19.40
2023-03-21T14:28:23.910Z,19.20
2023-03-21T14:30:54.889Z,19.20
2023-03-21T14:33:40.108Z,19.20
2023-03-21T14:36:13.521Z,19.20
2023-03-21T14:38:41.077Z,19.30
2023-03-21T14:41:29.798Z,19.40
2023-03-21T14:44:27.940Z,19.30
2023-03-21T14:47:00.453Z,19.30
2023-03-21T14:49:30.675Z,19.20
2023-03-21T14:52:01.160Z,19.00
2023-03-21T14:54:29.537Z,18.80
2023-03-21T14:57:04.870Z,18.70
2023-03-21T14:59:39.950Z,18.60
2023-03-21T15:02:22.683Z,18.60
2023-03-21T15:04:52.532Z,18.60
2023-03-21T15:07:33.731Z,18.70
2023-03-21T15:10:04.756Z,18.70
2023-03-21T15:12:32.747Z,18.60
2023-03-21T15:15:01.696Z,18.50
2023-03-21T15:17:29.079Z,18.50
2023-03-21T15:19:55.932Z,18.40
2023-03-21T15:22:31.708Z,18.30
2023-03-21T15:25:02.932Z,18.30
2023-03-21T15:27:32.949Z,18.50
2023-03-21T15:29:59.792Z,18.60
2023-03-21T15:32:29.127Z,18.70
2023-03-21T15:35:05.954Z,18.80
2023-03-21T15:37:37.617Z,18.70
2023-03-21T15:40:19.987Z,18.60
2023-03-21T15:42:46.765Z,18.50
2023-03-21T15:45:29.110Z,18.50
2023-03-21T15:47:59.816Z,18.30
2023-03-21T15:50:29.364Z,18.30
2023-03-21T15:52:58.889Z,18.30
2023-03-21T15:55:38.867Z,18.40
2023-03-21T15:58:13.208Z,18.30
2023-03-21T16:00:42.435Z,18.30
2023-03-21T16:03:29.975Z,18.00
2023-03-21T16:06:15.386Z,18.00
2023-03-21T16:08:48.249Z,17.80
2023-03-21T16:11:25.580Z,17.60
2023-03-21T16:13:54.312Z,17.60
2023-03-21T16:16:27.390Z,17.50
2023-03-21T16:18:55.742Z,17.40
2023-03-21T16:21:26.523Z,17.40
2023-03-21T16:23:53.512Z,17.40
2023-03-21T16:26:47.692Z,17.30
2023-03-21T16:29:15.901Z,17.20
2023-03-21T16:31:43.358Z,17.00
2023-03-21T16:34:10.755Z,17.00
2023-03-21T16:36:40.313Z,16.90
2023-03-21T16:39:21.554Z,16.90
2023-03-21T16:41:49.015Z,16.80
2023-03-21T16:44:16.040Z,16.80
2023-03-21T16:46:43.225Z,16.80
2023-03-21T16:49:36.413Z,16.80
2023-03-21T16:52:03.242Z,16.70
2023-03-21T16:54:30.271Z,16.80
2023-03-21T16:56:59.400Z,16.90
2023-03-21T16:59:26.120Z,16.90
2023-03-21T17:01:52.877Z,16.90
2023-03-21T17:04:19.562Z,16.90
2023-03-21T17:06:52.189Z,16.90
2023-03-21T17:09:24.387Z,16.90
2023-03-21T17:11:51.393Z,17.00
2023-03-21T17:14:18.604Z,17.00
2023-03-21T17:16:46.148Z,16.90
2023-03-21T17:19:27.905Z,16.80
2023-03-21T17:21:55.291Z,16.80
2023-03-21T17:24:23.565Z,16.70
2023-03-21T17:26:50.633Z,16.60
2023-03-21T17:29:17.375Z,16.50
2023-03-21T17:31:47.340Z,16.50
2023-03-21T17:34:14.881Z,16.40
2023-03-21T17:36:43.798Z,16.30
2023-03-21T17:39:22.650Z,16.20
2023-03-21T17:41:52.896Z,16.10
2023-03-21T17:44:20.414Z,16.10
2023-03-21T17:46:50.223Z,16.00
2023-03-21T17:49:18.001Z,16.00
2023-03-21T17:51:46.837Z,16.00
2023-03-21T17:54:13.954Z,16.00
2023-03-21T17:56:41.918Z,15.90
2023-03-21T17:59:12.481Z,16.00
2023-03-21T18:01:39.389Z,15.90
2023-03-21T18:04:06.330Z,16.00
2023-03-21T18:06:34.414Z,16.10
2023-03-21T18:09:06.705Z,16.00
2023-03-21T18:11:33.594Z,16.00
2023-03-21T18:14:15.027Z,15.90
2023-03-21T18:16:43.013Z,15.90
2023-03-21T18:19:12.783Z,15.90
2023-03-21T18:21:45.258Z,15.80
2023-03-21T18:24:13.200Z,15.80
2023-03-21T18:26:39.978Z,15.80
2023-03-21T18:30:13.170Z,15.70
2023-03-21T18:32:05.478Z,15.70
2023-03-21T18:34:34.042Z,15.60
2023-03-21T18:37:04.025Z,15.70
2023-03-21T18:39:32.980Z,15.70
2023-03-21T18:42:02.601Z,15.80
2023-03-21T18:44:31.358Z,15.80
2023-03-21T18:46:58.772Z,15.80
2023-03-21T18:52:12.960Z,15.70
2023-03-21T18:54:40.584Z,15.60
2023-03-21T18:59:56.609Z,15.60
2023-03-21T19:02:23.355Z,15.70
2023-03-21T19:04:50.214Z,15.80
2023-03-21T19:07:16.990Z,15.80
2023-03-21T19:10:05.382Z,15.80
2023-03-21T19:12:31.614Z,15.80
2023-03-21T19:14:58.973Z,15.70
2023-03-21T19:18:20.696Z,15.60
2023-03-21T19:20:14.003Z,15.60
2023-03-21T19:22:41.473Z,15.50
2023-03-21T19:25:09.553Z,15.40
2023-03-21T19:27:37.312Z,15.40
2023-03-21T19:30:14.351Z,15.40
2023-03-21T19:32:42.991Z,15.30
2023-03-21T19:35:11.100Z,15.30
2023-03-21T19:37:37.936Z,15.20
2023-03-21T19:40:06.181Z,15.20
2023-03-21T19:42:34.646Z,15.20
2023-03-21T19:45:01.592Z,15.20
2023-03-21T19:47:28.459Z,15.10
2023-03-21T19:50:40.880Z,15.10
2023-03-21T19:52:42.283Z,15.10
2023-03-21T19:55:09.290Z,15.10
2023-03-21T19:57:36.287Z,15.20
2023-03-21T20:00:03.947Z,15.20
2023-03-21T20:02:35.913Z,15.30
2023-03-21T20:05:05.079Z,15.40
2023-03-21T20:07:32.754Z,15.50
2023-03-21T20:09:59.879Z,15.50
2023-03-21T20:12:27.442Z,15.50
2023-03-21T20:15:06.992Z,15.60
2023-03-21T20:17:38.865Z,15.60
2023-03-21T20:20:10.201Z,15.50
2023-03-21T20:23:05.223Z,15.50
2023-03-21T20:25:24.305Z,15.40
2023-03-21T20:28:09.410Z,15.30
2023-03-21T20:30:38.815Z,15.30
2023-03-21T20:33:05.709Z,15.20
2023-03-21T20:36:23.681Z,15.10
2023-03-21T20:38:20.541Z,15.10
2023-03-21T20:40:48.027Z,15.10
2023-03-21T20:44:06.450Z,15.00
2023-03-21T20:46:06.787Z,15.00
2023-03-21T20:48:34.610Z,15.00
2023-03-21T20:51:57.889Z,14.90
2023-03-21T20:53:55.496Z,14.90
2023-03-21T20:56:22.752Z,14.90
2023-03-21T20:59:05.006Z,14.80
2023-03-21T21:01:36.574Z,14.80
2023-03-21T21:04:03.739Z,14.80
2023-03-21T21:06:30.726Z,14.70
2023-03-21T21:08:59.255Z,14.70
2023-03-21T21:14:15.162Z,14.70
2023-03-21T21:16:42.307Z,14.70
2023-03-21T21:19:09.973Z,14.70
2023-03-21T21:21:37.538Z,14.60
2023-03-21T21:24:07.480Z,14.60
2023-03-21T21:26:34.766Z,14.60
2023-03-21T21:29:01.617Z,14.60
2023-03-21T21:31:28.381Z,14.60
2023-03-21T21:33:55.709Z,14.60
2023-03-21T21:36:22.714Z,14.50
2023-03-21T21:38:49.567Z,14.60
2023-03-21T21:41:19.931Z,14.60
2023-03-21T21:43:47.604Z,14.50
2023-03-21T21:46:14.966Z,14.50
2023-03-21T21:48:42.398Z,14.40
2023-03-21T21:51:10.011Z,14.40
2023-03-21T21:53:36.826Z,14.40
2023-03-21T21:56:06.188Z,14.40
2023-03-21T21:58:33.738Z,14.40
2023-03-21T22:01:04.522Z,14.20
2023-03-21T22:03:41.067Z,14.30
2023-03-21T22:06:09.710Z,14.30
2023-03-21T22:08:36.759Z,14.40
2023-03-21T22:11:04.687Z,14.20
2023-03-21T22:13:31.840Z,14.30
2023-03-21T22:15:58.836Z,14.30
2023-03-21T22:18:25.925Z,14.20
2023-03-21T22:20:52.656Z,14.20
2023-03-21T22:23:19.459Z,14.20
2023-03-21T22:25:53.954Z,14.10
2023-03-21T22:28:22.073Z,14.10
2023-03-21T22:30:49.376Z,14.10
2023-03-21T22:33:16.208Z,14.20
2023-03-21T22:35:43.054Z,14.20
2023-03-21T22:38:09.918Z,14.20
2023-03-21T22:40:36.690Z,14.20
2023-03-21T22:43:03.942Z,14.20
2023-03-21T22:45:30.674Z,14.10
2023-03-21T22:47:59.735Z,14.20
2023-03-21T22:50:27.446Z,14.10
2023-03-21T22:52:54.171Z,14.10
2023-03-21T22:55:20.916Z,14.10
2023-03-21T22:57:47.728Z,14.00
2023-03-21T23:00:16.147Z,14.00
2023-03-21T23:02:42.887Z,14.10
2023-03-21T23:05:10.252Z,14.10
2023-03-21T23:07:37.435Z,14.10
2023-03-21T23:10:06.547Z,14.00
2023-03-21T23:12:33.537Z,14.00
2023-03-21T23:15:02.171Z,14.00
2023-03-21T23:17:29.184Z,14.00
2023-03-21T23:19:56.168Z,13.90
2023-03-21T23:22:22.885Z,13.90
2023-03-21T23:24:49.773Z,13.90
2023-03-21T23:27:18.115Z,13.90
2023-03-21T23:29:45.342Z,13.90
2023-03-21T23:32:12.086Z,13.90
2023-03-21T23:34:38.815Z,13.80
2023-03-21T23:37:06.775Z,13.80
2023-03-21T23:39:34.373Z,13.80
2023-03-21T23:42:01.567Z,13.80
2023-03-21T23:44:28.646Z,13.80
2023-03-21T23:46:55.479Z,13.80
2023-03-21T23:49:22.257Z,13.80
2023-03-21T23:51:49.987Z,13.80
2023-03-21T23:54:16.952Z,13.80
2023-03-21T23:56:43.946Z,13.80
2023-03-21T23:59:10.776Z,13.80
